Time;durP1;ratioP1;P1;durP2;ratioP2;P2;SDS_P1;SDS_P2;PMS_P1;PMS_P2;Temp;Humidity;BMP_temperature;BMP_pressure;BME280_temperature;BME280_humidity;BME280_pressure;Samples;Min_cycle;Max_cycle;Signal;HPM_P1;HPM_P2
2024/01/12 00:00:50;;;;;;;28.60;13.50;;;;;;;;;;4882529;29;20064;-92
2024/01/12 00:03:16;;;;;;;29.17;13.75;;;;;;;;;;4882649;29;20538;-93
2024/01/12 00:05:45;;;;;;;30.02;14.55;;;;;;;;;;4882618;29;20035;-92
2024/01/12 00:08:11;;;;;;;22.88;12.90;;;;;;;;;;4882046;29;20039;-94
2024/01/12 00:10:37;;;;;;;24.90;12.85;;;;;;;;;;4881761;29;20036;-94
2024/01/12 00:13:03;;;;;;;27.38;14.02;;;;;;;;;;4863690;29;20037;-93
2024/01/12 00:15:29;;;;;;;25.40;13.23;;;;;;;;;;4863999;29;20051;-93
2024/01/12 00:17:55;;;;;;;25.17;13.13;;;;;;;;;;4863825;29;20037;-92
2024/01/12 00:20:21;;;;;;;28.38;14.50;;;;;;;;;;4863537;29;20032;-94
2024/01/12 00:22:47;;;;;;;27.33;15.80;;;;;;;;;;4863520;29;20064;-93
2024/01/12 00:25:15;;;;;;;26.58;15.05;;;;;;;;;;4863526;29;20025;-93
2024/01/12 00:27:41;;;;;;;32.08;15.60;;;;;;;;;;4863910;29;20485;-93
2024/01/12 00:30:07;;;;;;;30.65;16.00;;;;;;;;;;4863599;29;20033;-93
2024/01/12 00:32:36;;;;;;;32.75;16.75;;;;;;;;;;4863470;29;20501;-90
2024/01/12 00:35:02;;;;;;;35.55;16.65;;;;;;;;;;4863247;29;20068;-94
2024/01/12 00:37:29;;;;;;;35.65;19.38;;;;;;;;;;4863469;29;20033;-91
2024/01/12 00:39:55;;;;;;;34.50;17.77;;;;;;;;;;4870136;29;20032;-93
2024/01/12 00:42:21;;;;;;;35.00;17.08;;;;;;;;;;4881981;29;20036;-94
2024/01/12 00:44:47;;;;;;;37.33;17.60;;;;;;;;;;4882143;29;20398;-92
2024/01/12 00:47:13;;;;;;;38.05;19.52;;;;;;;;;;4881880;29;20063;-94
2024/01/12 00:49:39;;;;;;;35.83;17.60;;;;;;;;;;4881939;29;20180;-92
2024/01/12 00:52:06;;;;;;;46.38;18.58;;;;;;;;;;4882274;29;20032;-90
2024/01/12 00:54:32;;;;;;;38.00;18.50;;;;;;;;;;4883280;29;20037;-93
2024/01/12 00:56:58;;;;;;;43.60;21.70;;;;;;;;;;4885523;29;20056;-93
2024/01/12 00:59:24;;;;;;;41.67;20.88;;;;;;;;;;4885430;29;20029;-94
2024/01/12 01:01:53;;;;;;;43.05;21.83;;;;;;;;;;4866949;29;20079;-93
2024/01/12 01:04:19;;;;;;;44.17;20.70;;;;;;;;;;4867191;29;20498;-92
2024/01/12 01:06:46;;;;;;;41.30;21.52;;;;;;;;;;4876825;29;20128;-94
2024/01/12 01:09:12;;;;;;;41.45;21.73;;;;;;;;;;4886416;29;20065;-93
2024/01/12 01:11:38;;;;;;;43.25;21.23;;;;;;;;;;4898757;29;20012;-93
2024/01/12 01:14:04;;;;;;;42.80;22.58;;;;;;;;;;4889132;29;20085;-93
2024/01/12 01:16:30;;;;;;;47.30;22.13;;;;;;;;;;4866781;29;20547;-91
2024/01/12 01:18:57;;;;;;;46.85;22.40;;;;;;;;;;4866500;29;20052;-90
2024/01/12 01:21:26;;;;;;;45.38;22.95;;;;;;;;;;4866487;29;20029;-93
2024/01/12 01:23:53;;;;;;;46.75;23.65;;;;;;;;;;4866385;29;20486;-92
2024/01/12 01:26:22;;;;;;;44.25;21.65;;;;;;;;;;4866502;29;20033;-92
2024/01/12 01:28:48;;;;;;;48.20;23.63;;;;;;;;;;4882518;29;20033;-90
2024/01/12 01:31:14;;;;;;;43.33;22.92;;;;;;;;;;4865959;29;20033;-93
2024/01/12 01:33:40;;;;;;;45.53;21.90;;;;;;;;;;4866550;29;20025;-92
2024/01/12 01:36:07;;;;;;;42.85;22.75;;;;;;;;;;4865975;29;20064;-91
2024/01/12 01:38:33;;;;;;;39.13;21.50;;;;;;;;;;4865837;29;20120;-93
2024/01/12 01:40:59;;;;;;;44.83;22.75;;;;;;;;;;4866413;29;20471;-92
2024/01/12 01:43:25;;;;;;;46.85;22.33;;;;;;;;;;4868581;29;20029;-91
2024/01/12 01:45:52;;;;;;;40.47;22.27;;;;;;;;;;4871287;29;20099;-93
2024/01/12 01:48:18;;;;;;;41.63;22.00;;;;;;;;;;4882865;29;20040;-92
2024/01/12 01:50:44;;;;;;;44.60;21.42;;;;;;;;;;4866070;29;20033;-93
2024/01/12 01:53:11;;;;;;;41.40;20.88;;;;;;;;;;4865973;29;20033;-91
2024/01/12 01:55:37;;;;;;;38.20;19.25;;;;;;;;;;4865850;29;20025;-91
2024/01/12 01:58:04;;;;;;;32.28;18.52;;;;;;;;;;4865536;29;20104;-90
2024/01/12 02:00:31;;;;;;;35.33;18.08;;;;;;;;;;4866048;29;20062;-92
2024/01/12 02:02:57;;;;;;;41.90;20.35;;;;;;;;;;4865806;29;20376;-91
2024/01/12 02:05:23;;;;;;;33.05;17.45;;;;;;;;;;4865228;29;20029;-92
2024/01/12 02:07:49;;;;;;;37.10;19.08;;;;;;;;;;4865474;29;20056;-92
2024/01/12 02:10:16;;;;;;;34.50;18.15;;;;;;;;;;4881914;29;20124;-94
2024/01/12 02:12:42;;;;;;;34.70;16.70;;;;;;;;;;4865294;29;20076;-93
2024/01/12 02:15:10;;;;;;;33.10;16.92;;;;;;;;;;4865175;29;20036;-90
2024/01/12 02:17:36;;;;;;;34.33;18.92;;;;;;;;;;4865332;29;20105;-92
2024/01/12 02:20:02;;;;;;;35.65;21.23;;;;;;;;;;4865253;29;20476;-91
2024/01/12 02:22:29;;;;;;;35.50;19.50;;;;;;;;;;4878581;29;20111;-91
2024/01/12 02:24:55;;;;;;;39.05;20.05;;;;;;;;;;4883647;29;20099;-90
2024/01/12 02:27:21;;;;;;;42.78;22.27;;;;;;;;;;4884082;29;20033;-92
2024/01/12 02:29:48;;;;;;;38.45;20.45;;;;;;;;;;4868654;29;20068;-93
2024/01/12 02:32:14;;;;;;;45.10;21.55;;;;;;;;;;4865701;29;20036;-94
2024/01/12 02:34:40;;;;;;;42.13;21.48;;;;;;;;;;4865344;29;20479;-92
2024/01/12 02:37:06;;;;;;;43.97;22.20;;;;;;;;;;4865589;29;20120;-92
2024/01/12 02:39:33;;;;;;;47.72;22.73;;;;;;;;;;4865474;29;20041;-94
2024/01/12 02:41:59;;;;;;;43.55;22.58;;;;;;;;;;4880213;29;20032;-92
2024/01/12 02:44:27;;;;;;;43.40;21.25;;;;;;;;;;4884493;29;20033;-91
2024/01/12 02:46:53;;;;;;;42.97;21.63;;;;;;;;;;4883945;29;20056;-91
2024/01/12 02:49:19;;;;;;;42.72;21.00;;;;;;;;;;4883725;29;20486;-93
2024/01/12 02:51:46;;;;;;;45.03;22.67;;;;;;;;;;4894341;29;20037;-92
2024/01/12 02:54:12;;;;;;;42.05;20.88;;;;;;;;;;4907385;29;20033;-92
2024/01/12 02:56:38;;;;;;;42.42;21.13;;;;;;;;;;4885578;29;20119;-93
2024/01/12 02:59:05;;;;;;;37.72;21.08;;;;;;;;;;4883257;29;20025;-93
2024/01/12 03:01:34;;;;;;;41.75;21.90;;;;;;;;;;4882887;29;20397;-94
2024/01/12 03:04:00;;;;;;;42.40;21.15;;;;;;;;;;4883024;29;20052;-94
2024/01/12 03:06:26;;;;;;;43.70;20.17;;;;;;;;;;4883013;29;20497;-94
2024/01/12 03:08:52;;;;;;;38.70;19.95;;;;;;;;;;4883176;29;20051;-91
2024/01/12 03:11:18;;;;;;;43.25;21.90;;;;;;;;;;4882921;29;20482;-91
2024/01/12 03:13:45;;;;;;;41.92;22.05;;;;;;;;;;4883151;29;20129;-94
2024/01/12 03:16:21;;;;;;;39.72;20.83;;;;;;;;;;4882499;29;20125;-90
2024/01/12 03:18:50;;;;;;;38.22;18.83;;;;;;;;;;4882480;29;20048;-91
2024/01/12 03:21:19;;;;;;;38.72;20.58;;;;;;;;;;4883070;29;20036;-92
2024/01/12 03:23:47;;;;;;;37.90;18.20;;;;;;;;;;4882722;29;20073;-91
2024/01/12 03:26:14;;;;;;;36.25;18.10;;;;;;;;;;4883368;29;20036;-95
2024/01/12 03:28:40;;;;;;;37.00;19.58;;;;;;;;;;4869525;29;20064;-90
2024/01/12 03:31:06;;;;;;;39.15;19.33;;;;;;;;;;4863729;29;20474;-93
2024/01/12 03:33:33;;;;;;;37.58;19.15;;;;;;;;;;4870592;29;20034;-93
2024/01/12 03:35:59;;;;;;;37.50;19.08;;;;;;;;;;4878074;29;20032;-92
2024/01/12 03:38:26;;;;;;;33.63;18.70;;;;;;;;;;4865233;29;20397;-91
2024/01/12 03:40:52;;;;;;;33.85;18.52;;;;;;;;;;4863942;29;20099;-91
2024/01/12 03:43:18;;;;;;;37.47;17.48;;;;;;;;;;4875189;29;20058;-91
2024/01/12 03:45:44;;;;;;;33.92;17.67;;;;;;;;;;4882440;29;20048;-94
2024/01/12 03:48:10;;;;;;;33.35;16.33;;;;;;;;;;4882822;29;20088;-95
2024/01/12 03:50:37;;;;;;;31.05;17.05;;;;;;;;;;4882499;29;20502;-95
2024/01/12 03:53:03;;;;;;;29.48;16.60;;;;;;;;;;4882307;29;20036;-91
2024/01/12 03:55:29;;;;;;;29.98;17.70;;;;;;;;;;4882215;29;20036;-95
2024/01/12 03:57:55;;;;;;;24.90;15.05;;;;;;;;;;4882986;29;20032;-94
2024/01/12 04:00:21;;;;;;;30.35;16.70;;;;;;;;;;4882316;29;20035;-92
2024/01/12 04:02:47;;;;;;;30.58;16.77;;;;;;;;;;4882518;29;20478;-92
2024/01/12 04:05:14;;;;;;;34.25;19.10;;;;;;;;;;4882528;29;20033;-93
2024/01/12 04:07:40;;;;;;;30.33;16.92;;;;;;;;;;4863753;29;20036;-92
2024/01/12 04:10:06;;;;;;;29.88;15.85;;;;;;;;;;4870122;29;20051;-91
2024/01/12 04:12:32;;;;;;;31.67;17.08;;;;;;;;;;4882161;29;20039;-93
2024/01/12 04:14:58;;;;;;;34.30;17.40;;;;;;;;;;4899253;29;20526;-94
2024/01/12 04:17:28;;;;;;;32.10;16.60;;;;;;;;;;4882649;29;20037;-92
2024/01/12 04:19:54;;;;;;;30.75;16.05;;;;;;;;;;4882927;29;20028;-95
2024/01/12 04:22:20;;;;;;;34.33;18.67;;;;;;;;;;4882824;29;20033;-95
2024/01/12 04:24:46;;;;;;;33.08;18.08;;;;;;;;;;4867593;29;20105;-93
2024/01/12 04:27:12;;;;;;;34.83;19.20;;;;;;;;;;4870424;29;20039;-91
2024/01/12 04:29:39;;;;;;;37.92;20.52;;;;;;;;;;4868572;29;20044;-91
2024/01/12 04:32:05;;;;;;;40.78;20.02;;;;;;;;;;4891623;29;20069;-93
2024/01/12 04:34:31;;;;;;;37.60;19.25;;;;;;;;;;4909947;29;20023;-91
2024/01/12 04:36:58;;;;;;;42.25;20.80;;;;;;;;;;4888542;29;20029;-92
2024/01/12 04:39:24;;;;;;;38.38;21.05;;;;;;;;;;4886556;29;20029;-91
2024/01/12 04:41:50;;;;;;;40.60;23.88;;;;;;;;;;4885573;29;20031;-91
2024/01/12 04:44:16;;;;;;;35.40;22.05;;;;;;;;;;4885621;29;20037;-95
2024/01/12 04:46:42;;;;;;;40.10;22.23;;;;;;;;;;4885375;29;20521;-92
2024/01/12 04:49:09;;;;;;;41.40;23.60;;;;;;;;;;4885736;29;20039;-94
2024/01/12 04:51:35;;;;;;;43.78;24.25;;;;;;;;;;4885329;29;20029;-94
2024/01/12 04:54:01;;;;;;;37.72;23.45;;;;;;;;;;4885588;29;20025;-94
2024/01/12 04:56:28;;;;;;;36.15;22.17;;;;;;;;;;4885915;29;20519;-93
2024/01/12 04:58:54;;;;;;;44.70;24.65;;;;;;;;;;4885603;29;20028;-91
2024/01/12 05:01:21;;;;;;;38.55;25.52;;;;;;;;;;4879224;29;20025;-92
2024/01/12 05:03:47;;;;;;;40.70;24.52;;;;;;;;;;4885777;29;20032;-91
2024/01/12 05:06:13;;;;;;;43.55;26.83;;;;;;;;;;4885477;29;20029;-92
2024/01/12 05:08:39;;;;;;;43.13;25.50;;;;;;;;;;4885299;29;20455;-94
2024/01/12 05:11:06;;;;;;;41.17;26.63;;;;;;;;;;4885979;29;20397;-95
2024/01/12 05:13:32;;;;;;;37.78;26.08;;;;;;;;;;4885713;29;20500;-94
2024/01/12 05:15:58;;;;;;;43.72;27.05;;;;;;;;;;4885673;29;20035;-93
2024/01/12 05:18:24;;;;;;;39.80;26.50;;;;;;;;;;4885755;29;20030;-91
2024/01/12 05:20:50;;;;;;;38.17;25.27;;;;;;;;;;4885253;29;20036;-93
2024/01/12 05:23:16;;;;;;;37.40;25.38;;;;;;;;;;4884829;29;20032;-92
2024/01/12 05:25:42;;;;;;;35.63;24.48;;;;;;;;;;4884672;29;20037;-92
2024/01/12 05:28:09;;;;;;;37.55;24.65;;;;;;;;;;4897423;29;20036;-93
2024/01/12 05:30:35;;;;;;;39.30;25.58;;;;;;;;;;4866076;29;20037;-93
2024/01/12 05:33:01;;;;;;;35.83;24.42;;;;;;;;;;4876578;29;20028;-91
2024/01/12 05:35:27;;;;;;;36.70;25.27;;;;;;;;;;4901556;29;20092;-91
2024/01/12 05:37:54;;;;;;;40.72;24.67;;;;;;;;;;4884675;29;20058;-92
2024/01/12 05:40:21;;;;;;;34.20;24.23;;;;;;;;;;4884023;29;20024;-93
2024/01/12 05:42:53;;;;;;;41.05;24.25;;;;;;;;;;4884841;29;20029;-95
2024/01/12 05:45:19;;;;;;;36.65;23.65;;;;;;;;;;4884740;29;20048;-95
2024/01/12 05:47:48;;;;;;;46.50;28.40;;;;;;;;;;4884402;29;20044;-91
2024/01/12 05:50:15;;;;;;;45.33;27.35;;;;;;;;;;4884383;29;20043;-93
2024/01/12 05:52:41;;;;;;;43.65;26.08;;;;;;;;;;4884735;29;20024;-94
2024/01/12 05:55:07;;;;;;;43.30;25.95;;;;;;;;;;4884552;29;20032;-92
2024/01/12 05:57:42;;;;;;;37.67;24.58;;;;;;;;;;4884706;29;20085;-93
2024/01/12 06:00:09;;;;;;;42.55;26.27;;;;;;;;;;4884551;29;20398;-94
2024/01/12 06:05:25;;;;;;;37.30;25.27;;;;;;;;;;4902555;29;20043;-93
2024/01/12 06:07:51;;;;;;;39.10;25.13;;;;;;;;;;4884692;29;20028;-94
2024/01/12 06:10:17;;;;;;;43.03;24.88;;;;;;;;;;4884701;29;20522;-92
2024/01/12 06:12:43;;;;;;;38.45;24.75;;;;;;;;;;4903979;29;20044;-93
2024/01/12 06:18:17;;;;;;;39.25;23.77;;;;;;;;;;4883201;29;20100;-96
2024/01/12 06:20:48;;;;;;;46.03;26.80;;;;;;;;;;4865631;29;20069;-92
2024/01/12 06:23:17;;;;;;;43.83;26.10;;;;;;;;;;4866365;29;20032;-93
2024/01/12 06:56:16;;;;;;;51.63;30.40;;;;;;;;;;4863880;29;20039;-95
2024/01/12 07:14:25;;;;;;;43.33;27.23;;;;;;;;;;4863032;29;20487;-94
2024/01/12 07:17:20;;;;;;;45.58;27.25;;;;;;;;;;4885182;29;20040;-95
2024/01/12 07:22:49;;;;;;;44.33;26.23;;;;;;;;;;4899749;29;20500;-91
2024/01/12 07:25:15;;;;;;;49.03;28.27;;;;;;;;;;4883154;29;20039;-92
2024/01/12 07:27:42;;;;;;;49.83;28.73;;;;;;;;;;4884123;29;20363;-95
2024/01/12 07:30:08;;;;;;;45.08;27.50;;;;;;;;;;4883253;29;20033;-95
2024/01/12 07:32:35;;;;;;;45.50;28.45;;;;;;;;;;4875791;29;20063;-94
2024/01/12 07:35:01;;;;;;;51.25;29.98;;;;;;;;;;4882578;29;20029;-95
2024/01/12 07:37:28;;;;;;;50.35;28.90;;;;;;;;;;4882976;29;20467;-91
2024/01/12 07:39:54;;;;;;;48.05;27.60;;;;;;;;;;4883241;29;20060;-92
2024/01/12 07:42:20;;;;;;;47.42;27.05;;;;;;;;;;4883144;29;20032;-94
2024/01/12 07:44:47;;;;;;;44.88;29.38;;;;;;;;;;4883390;29;20036;-96
2024/01/12 07:47:13;;;;;;;43.42;27.10;;;;;;;;;;4883249;29;20080;-95
2024/01/12 07:49:39;;;;;;;50.55;27.55;;;;;;;;;;4870477;29;20055;-96
2024/01/12 07:52:06;;;;;;;48.08;29.02;;;;;;;;;;4876612;29;20010;-93
2024/01/12 07:54:32;;;;;;;47.72;28.45;;;;;;;;;;4894059;29;20029;-91
2024/01/12 07:56:58;;;;;;;47.58;27.80;;;;;;;;;;4874476;29;20068;-95
2024/01/12 07:59:24;;;;;;;48.85;29.67;;;;;;;;;;4864502;29;20033;-90
2024/01/12 08:01:53;;;;;;;54.30;28.75;;;;;;;;;;4864820;29;20055;-96
2024/01/12 08:04:21;;;;;;;45.40;27.13;;;;;;;;;;4863978;29;20142;-95
2024/01/12 08:06:47;;;;;;;42.92;27.40;;;;;;;;;;4863973;29;20025;-90
2024/01/12 08:09:16;;;;;;;49.70;27.45;;;;;;;;;;4864248;29;20097;-91
2024/01/12 08:11:42;;;;;;;41.45;24.60;;;;;;;;;;4845634;29;20475;-96
2024/01/12 08:14:08;;;;;;;43.45;27.38;;;;;;;;;;4858475;29;20037;-96
2024/01/12 08:16:35;;;;;;;43.13;24.90;;;;;;;;;;4882396;29;20032;-95
2024/01/12 08:19:01;;;;;;;38.53;25.17;;;;;;;;;;4882767;29;20080;-94
2024/01/12 08:21:27;;;;;;;41.70;24.98;;;;;;;;;;4874846;29;20036;-94
2024/01/12 08:23:54;;;;;;;46.95;26.02;;;;;;;;;;4864106;29;20037;-95
2024/01/12 08:26:21;;;;;;;43.53;24.67;;;;;;;;;;4864121;29;20025;-92
2024/01/12 08:28:51;;;;;;;39.05;25.40;;;;;;;;;;4863999;29;20037;-89
2024/01/12 08:31:17;;;;;;;39.30;25.63;;;;;;;;;;4863836;29;20037;-91
2024/01/12 08:33:48;;;;;;;38.97;26.90;;;;;;;;;;4863807;29;20375;-94
2024/01/12 08:36:14;;;;;;;35.97;25.05;;;;;;;;;;4865198;29;20021;-92
2024/01/12 08:38:40;;;;;;;38.22;26.63;;;;;;;;;;4864262;29;20040;-95
2024/01/12 08:41:06;;;;;;;34.53;27.08;;;;;;;;;;4864401;29;20033;-91
2024/01/12 08:43:32;;;;;;;37.33;28.67;;;;;;;;;;4865544;29;20210;-96
2024/01/12 08:45:58;;;;;;;40.17;28.20;;;;;;;;;;4881230;29;20041;-96
2024/01/12 08:48:24;;;;;;;37.53;27.73;;;;;;;;;;4882965;29;20032;-92
2024/01/12 08:50:51;;;;;;;37.50;28.08;;;;;;;;;;4874914;29;20111;-90
2024/01/12 08:53:17;;;;;;;41.22;27.95;;;;;;;;;;4873942;29;20043;-95
2024/01/12 08:55:43;;;;;;;37.47;25.70;;;;;;;;;;4877687;29;20025;-91
2024/01/12 08:58:10;;;;;;;39.17;26.25;;;;;;;;;;4863781;29;20367;-96
2024/01/12 09:00:36;;;;;;;40.33;28.70;;;;;;;;;;4875309;29;20037;-95
2024/01/12 09:03:03;;;;;;;39.63;26.88;;;;;;;;;;4876688;29;20039;-91
2024/01/12 09:05:29;;;;;;;45.25;28.30;;;;;;;;;;4866085;29;21160;-94
2024/01/12 09:07:55;;;;;;;39.90;26.83;;;;;;;;;;4882169;29;20036;-90
2024/01/12 09:10:21;;;;;;;39.80;27.08;;;;;;;;;;4882053;29;20040;-95
2024/01/12 09:12:48;;;;;;;39.72;27.67;;;;;;;;;;4882151;29;20027;-94
2024/01/12 09:15:14;;;;;;;36.95;25.17;;;;;;;;;;4883066;29;20073;-94
2024/01/12 09:17:41;;;;;;;41.42;28.23;;;;;;;;;;4885489;29;20525;-95
2024/01/12 09:20:07;;;;;;;39.95;25.63;;;;;;;;;;4885311;29;20039;-95
2024/01/12 09:22:34;;;;;;;42.30;24.70;;;;;;;;;;4886646;29;20039;-94
2024/01/12 09:25:00;;;;;;;42.42;26.65;;;;;;;;;;4885212;29;20084;-94
2024/01/12 09:27:26;;;;;;;39.92;24.63;;;;;;;;;;4884948;29;20474;-95
2024/01/12 09:29:52;;;;;;;35.03;25.63;;;;;;;;;;4884813;29;20065;-92
2024/01/12 09:32:19;;;;;;;38.72;24.75;;;;;;;;;;4888084;29;20039;-89
2024/01/12 09:34:45;;;;;;;35.50;25.52;;;;;;;;;;4900099;29;20038;-90
2024/01/12 09:37:12;;;;;;;40.22;26.63;;;;;;;;;;4884287;29;20029;-89
2024/01/12 09:39:38;;;;;;;36.53;25.73;;;;;;;;;;4866724;29;20029;-94
2024/01/12 09:42:08;;;;;;;36.55;24.98;;;;;;;;;;4866483;29;20483;-96
2024/01/12 09:44:37;;;;;;;32.92;22.80;;;;;;;;;;4880283;29;20032;-94
2024/01/12 09:47:04;;;;;;;33.65;23.88;;;;;;;;;;4885276;29;20115;-95
2024/01/12 09:49:30;;;;;;;34.75;22.63;;;;;;;;;;4885229;29;20063;-95
2024/01/12 09:51:57;;;;;;;32.35;24.30;;;;;;;;;;4885243;29;20036;-93
2024/01/12 09:54:24;;;;;;;32.05;24.50;;;;;;;;;;4884534;29;20032;-89
2024/01/12 09:56:51;;;;;;;33.63;25.65;;;;;;;;;;4884670;29;20462;-95
2024/01/12 09:59:18;;;;;;;33.63;25.42;;;;;;;;;;4884654;29;20474;-94
2024/01/12 10:01:44;;;;;;;32.47;27.33;;;;;;;;;;4884316;29;20039;-95
2024/01/12 10:04:10;;;;;;;36.85;25.88;;;;;;;;;;4883738;29;20036;-95
2024/01/12 10:06:37;;;;;;;32.47;27.23;;;;;;;;;;4866434;29;20053;-94
2024/01/12 10:09:04;;;;;;;29.55;24.77;;;;;;;;;;4867649;29;20101;-94
2024/01/12 10:11:30;;;;;;;32.17;25.27;;;;;;;;;;4865431;29;20029;-90
2024/01/12 10:13:56;;;;;;;30.77;27.50;;;;;;;;;;4865681;29;20033;-94
2024/01/12 10:16:28;;;;;;;32.17;26.13;;;;;;;;;;4865730;29;20025;-96
2024/01/12 10:18:55;;;;;;;33.80;26.90;;;;;;;;;;4866212;29;20029;-96
2024/01/12 10:21:21;;;;;;;39.30;32.35;;;;;;;;;;4866152;29;20065;-92
2024/01/12 10:23:47;;;;;;;43.50;34.20;;;;;;;;;;4867896;29;20037;-95
2024/01/12 10:26:17;;;;;;;47.20;41.75;;;;;;;;;;4872638;29;20037;-94
2024/01/12 10:28:44;;;;;;;42.55;36.85;;;;;;;;;;4883784;29;20069;-94
2024/01/12 10:31:10;;;;;;;41.83;37.38;;;;;;;;;;4883857;29;20032;-96
2024/01/12 10:33:36;;;;;;;47.05;42.05;;;;;;;;;;4883687;29;20021;-96
2024/01/12 10:36:07;;;;;;;51.28;46.65;;;;;;;;;;4880475;29;20037;-95
2024/01/12 10:38:37;;;;;;;43.00;38.70;;;;;;;;;;4865050;29;20029;-96
2024/01/12 10:41:05;;;;;;;43.92;39.65;;;;;;;;;;4865365;29;20021;-96
2024/01/12 10:43:32;;;;;;;44.90;40.22;;;;;;;;;;4864990;29;20056;-96
2024/01/12 10:46:00;;;;;;;49.58;43.63;;;;;;;;;;4864813;29;20084;-91
2024/01/12 10:48:29;;;;;;;44.33;39.90;;;;;;;;;;4865211;29;20025;-96
2024/01/12 10:51:00;;;;;;;46.03;41.53;;;;;;;;;;4865831;29;20059;-93
2024/01/12 10:53:32;;;;;;;50.88;46.08;;;;;;;;;;4883866;29;20036;-96
2024/01/12 10:56:00;;;;;;;52.15;47.10;;;;;;;;;;4883781;29;20119;-95
2024/01/12 10:58:26;;;;;;;60.08;54.20;;;;;;;;;;4883737;29;20119;-95
2024/01/12 11:00:53;;;;;;;54.72;48.70;;;;;;;;;;4884105;29;20036;-96
2024/01/12 11:03:21;;;;;;;43.13;39.03;;;;;;;;;;4884485;29;20025;-95
2024/01/12 11:05:51;;;;;;;46.42;42.15;;;;;;;;;;4884186;29;20107;-95
2024/01/12 11:08:20;;;;;;;41.63;37.38;;;;;;;;;;4884500;29;20028;-95
2024/01/12 11:10:50;;;;;;;35.45;31.63;;;;;;;;;;4884214;29;20044;-96
2024/01/12 11:13:17;;;;;;;34.25;30.95;;;;;;;;;;4884506;29;20438;-94
2024/01/12 11:15:44;;;;;;;30.13;27.23;;;;;;;;;;4895003;29;20013;-93
2024/01/12 11:18:10;;;;;;;33.17;30.10;;;;;;;;;;4901974;29;20020;-92
2024/01/12 11:20:38;;;;;;;32.88;29.88;;;;;;;;;;4893992;29;20039;-94
2024/01/12 11:23:04;;;;;;;30.92;27.50;;;;;;;;;;4883128;29;20028;-93
2024/01/12 11:25:31;;;;;;;33.45;30.25;;;;;;;;;;4883189;29;20059;-94
2024/01/12 11:27:57;;;;;;;31.95;28.92;;;;;;;;;;4883352;29;20482;-91
2024/01/12 11:30:25;;;;;;;33.83;30.92;;;;;;;;;;4882841;29;20573;-91
2024/01/12 11:33:00;;;;;;;30.48;27.48;;;;;;;;;;4883776;29;20374;-92
2024/01/12 11:35:29;;;;;;;30.13;27.08;;;;;;;;;;4888314;29;20116;-92
2024/01/12 11:38:09;;;;;;;35.90;27.55;;;;;;;;;;4881984;29;20033;-91
2024/01/12 11:40:35;;;;;;;25.65;22.90;;;;;;;;;;4882616;29;20028;-95
2024/01/12 11:43:02;;;;;;;27.33;24.40;;;;;;;;;;4882485;29;20029;-95
2024/01/12 11:45:29;;;;;;;26.35;21.35;;;;;;;;;;4883052;29;20056;-95
2024/01/12 11:47:55;;;;;;;26.45;22.88;;;;;;;;;;4882528;29;20088;-94
2024/01/12 11:50:25;;;;;;;27.65;24.75;;;;;;;;;;4882184;29;20139;-95
2024/01/12 11:53:01;;;;;;;27.08;24.25;;;;;;;;;;4882858;29;20088;-90
2024/01/12 11:55:28;;;;;;;31.63;26.70;;;;;;;;;;4883242;29;20478;-95
2024/01/12 11:57:55;;;;;;;28.40;23.45;;;;;;;;;;4882704;29;20500;-94
2024/01/12 12:00:23;;;;;;;26.77;24.05;;;;;;;;;;4882444;29;20029;-91
2024/01/12 12:02:49;;;;;;;27.15;24.17;;;;;;;;;;4882695;29;20073;-90
2024/01/12 12:05:16;;;;;;;28.27;22.85;;;;;;;;;;4883682;29;20028;-95
2024/01/12 12:07:42;;;;;;;27.27;24.40;;;;;;;;;;4882177;29;20119;-95
2024/01/12 12:10:12;;;;;;;30.55;27.50;;;;;;;;;;4882271;29;20105;-95
2024/01/12 12:12:39;;;;;;;32.90;30.02;;;;;;;;;;4896246;29;20081;-94
2024/01/12 12:15:07;;;;;;;35.50;32.47;;;;;;;;;;4863734;29;20041;-94
2024/01/12 12:17:35;;;;;;;33.33;30.27;;;;;;;;;;4863886;29;20466;-94
2024/01/12 12:20:02;;;;;;;32.97;29.58;;;;;;;;;;4863625;29;20036;-94
2024/01/12 12:22:30;;;;;;;34.65;31.38;;;;;;;;;;4863606;29;20040;-93
2024/01/12 12:24:56;;;;;;;31.90;28.83;;;;;;;;;;4864531;29;20459;-93
2024/01/12 12:27:25;;;;;;;30.15;27.20;;;;;;;;;;4864880;29;20077;-96
2024/01/12 12:29:53;;;;;;;27.85;25.08;;;;;;;;;;4864702;29;20075;-96
2024/01/12 12:32:23;;;;;;;30.15;27.05;;;;;;;;;;4882215;29;20050;-95
2024/01/12 12:34:50;;;;;;;26.17;23.38;;;;;;;;;;4881511;29;20051;-92
2024/01/12 12:37:17;;;;;;;26.65;23.10;;;;;;;;;;4882725;29;20028;-92
2024/01/12 12:39:47;;;;;;;27.42;21.95;;;;;;;;;;4882635;29;20497;-92
2024/01/12 12:42:13;;;;;;;24.00;18.52;;;;;;;;;;4883372;29;20044;-95
2024/01/12 12:44:39;;;;;;;22.40;19.65;;;;;;;;;;4884985;29;20474;-94
2024/01/12 12:47:08;;;;;;;22.10;17.98;;;;;;;;;;4871560;29;20478;-92
2024/01/12 12:49:42;;;;;;;20.50;17.30;;;;;;;;;;4894599;29;20053;-94
2024/01/12 12:52:09;;;;;;;22.48;16.60;;;;;;;;;;4895795;29;20494;-96
2024/01/12 12:54:38;;;;;;;25.20;20.23;;;;;;;;;;4875728;29;20032;-96
2024/01/12 12:57:06;;;;;;;24.65;21.05;;;;;;;;;;4895028;29;20025;-93
2024/01/12 12:59:33;;;;;;;26.67;23.75;;;;;;;;;;4902482;29;20025;-92
2024/01/12 13:02:03;;;;;;;25.00;22.33;;;;;;;;;;4900461;29;20057;-93
2024/01/12 13:04:31;;;;;;;22.20;17.55;;;;;;;;;;4885866;29;20024;-94
2024/01/12 13:06:58;;;;;;;24.42;19.42;;;;;;;;;;4886107;29;20032;-94
2024/01/12 13:09:25;;;;;;;24.88;18.50;;;;;;;;;;4885255;29;20127;-95
2024/01/12 13:11:52;;;;;;;21.75;15.63;;;;;;;;;;4885344;29;20028;-93
2024/01/12 13:14:18;;;;;;;22.52;17.85;;;;;;;;;;4878758;29;20096;-93
2024/01/12 13:16:44;;;;;;;23.63;18.25;;;;;;;;;;4866925;29;20422;-95
2024/01/12 13:19:11;;;;;;;22.63;16.60;;;;;;;;;;4866544;29;20063;-96
2024/01/12 13:21:37;;;;;;;29.20;16.65;;;;;;;;;;4866449;29;20036;-94
2024/01/12 13:24:04;;;;;;;34.22;20.17;;;;;;;;;;4866660;29;20033;-93
2024/01/12 13:26:30;;;;;;;27.58;19.20;;;;;;;;;;4866415;29;20085;-94
2024/01/12 13:28:56;;;;;;;32.97;23.48;;;;;;;;;;4866119;29;20037;-92
2024/01/12 13:31:23;;;;;;;29.02;22.90;;;;;;;;;;4866733;29;20037;-94
2024/01/12 13:33:49;;;;;;;22.48;17.25;;;;;;;;;;4866607;29;20021;-92
2024/01/12 13:36:16;;;;;;;34.13;23.98;;;;;;;;;;4866365;29;20036;-93
2024/01/12 13:38:42;;;;;;;35.88;25.63;;;;;;;;;;4866267;29;20067;-92
2024/01/12 13:41:24;;;;;;;25.13;21.90;;;;;;;;;;4865855;29;20029;-91
2024/01/12 15:10:56;;;;;;;27.45;15.90;;;;;;;;;;5911117;23;20136;-90
2024/01/12 15:13:22;;;;;;;27.50;15.35;;;;;;;;;;4862857;29;20037;-92
2024/01/12 15:15:49;;;;;;;28.80;15.98;;;;;;;;;;4864382;29;20033;-90
2024/01/12 15:18:15;;;;;;;30.02;15.98;;;;;;;;;;4864119;29;20036;-91
2024/01/12 15:20:41;;;;;;;29.83;15.65;;;;;;;;;;4864220;29;20040;-91
2024/01/12 15:23:09;;;;;;;26.83;13.93;;;;;;;;;;4864349;29;20049;-92
2024/01/12 15:25:35;;;;;;;24.67;15.45;;;;;;;;;;4864461;29;20085;-91
2024/01/12 15:28:01;;;;;;;26.45;15.70;;;;;;;;;;4864483;29;20041;-90
2024/01/12 15:30:27;;;;;;;26.10;15.23;;;;;;;;;;4864295;29;20064;-90
2024/01/12 15:32:54;;;;;;;27.40;15.68;;;;;;;;;;4864095;29;20032;-91
2024/01/12 15:35:20;;;;;;;29.27;17.92;;;;;;;;;;4864521;29;20108;-92
2024/01/12 15:37:46;;;;;;;31.05;19.65;;;;;;;;;;4864307;29;20033;-91
2024/01/12 15:40:12;;;;;;;37.80;20.90;;;;;;;;;;4882484;29;20043;-92
2024/01/12 15:42:38;;;;;;;37.78;19.83;;;;;;;;;;4882936;29;20111;-91
2024/01/12 15:45:05;;;;;;;29.83;19.35;;;;;;;;;;4883390;29;20040;-91
2024/01/12 15:47:32;;;;;;;29.80;20.95;;;;;;;;;;4882530;29;20020;-95
2024/01/12 15:49:58;;;;;;;32.33;20.05;;;;;;;;;;4882572;29;20044;-93
2024/01/12 15:52:24;;;;;;;29.85;19.48;;;;;;;;;;4882606;29;20179;-96
2024/01/12 15:54:50;;;;;;;29.27;18.38;;;;;;;;;;4882667;29;20509;-93
2024/01/12 15:57:18;;;;;;;28.92;18.23;;;;;;;;;;4882569;29;20025;-94
2024/01/12 15:59:45;;;;;;;33.53;20.52;;;;;;;;;;4882723;29;20044;-91
2024/01/12 16:02:11;;;;;;;29.33;17.73;;;;;;;;;;4886950;29;20064;-92
2024/01/12 16:04:37;;;;;;;31.88;19.55;;;;;;;;;;4882613;29;20028;-93
2024/01/12 16:07:03;;;;;;;25.08;16.08;;;;;;;;;;4882351;29;20134;-91
2024/01/12 16:09:30;;;;;;;27.20;17.60;;;;;;;;;;4882834;29;20131;-93
2024/01/12 16:11:56;;;;;;;27.08;19.00;;;;;;;;;;4881979;29;20048;-92
2024/01/12 16:14:22;;;;;;;25.77;17.33;;;;;;;;;;4882187;29;20060;-93
2024/01/12 16:16:48;;;;;;;24.27;15.73;;;;;;;;;;4882436;29;20024;-93
2024/01/12 16:19:14;;;;;;;23.55;15.63;;;;;;;;;;4882840;29;20024;-92
2024/01/12 16:21:41;;;;;;;27.27;18.00;;;;;;;;;;4882782;29;20043;-92
2024/01/12 16:24:08;;;;;;;28.67;16.63;;;;;;;;;;4883688;29;20033;-92
2024/01/12 16:26:38;;;;;;;28.35;16.90;;;;;;;;;;4889594;29;20431;-92
2024/01/12 16:29:04;;;;;;;27.38;17.27;;;;;;;;;;4909796;29;20100;-92
2024/01/12 16:31:30;;;;;;;26.30;16.65;;;;;;;;;;4905573;29;20050;-93
2024/01/12 16:33:57;;;;;;;31.80;19.42;;;;;;;;;;4886301;29;20123;-93
2024/01/12 16:36:23;;;;;;;24.88;17.17;;;;;;;;;;4885682;29;20143;-94